KCRW/CRW METAR and TAF weather

Enter ICAO airport designator
Station Type Date Time Source
KCRW METAR 2024/04/17 16:54 UTC NOAA

KCRW 171654Z 23013G23KT 10SM SCT070 SCT120 BKN200 27/09 A2991 RMK AO2 PK WND 19033/1612 SLP120 T02720089


Station Type Date Time Source
KCRW Decoded METAR 2024/04/17 16:54 UTC NOAA

YEAGER AIRPORT, WV, United States (KCRW) 38-22N 081-36W 309M
Apr 17, 2024 - 12:54 PM EDT / 2024.04.17 1654 UTC
Wind: from the SW (230 degrees) at 15 MPH (13 KT) gusting to 26 MPH (23 KT):0
Visibility: 10 mile(s):0
Sky conditions: mostly cloudy
Temperature: 81.0 F (27.2 C)
Dew Point: 48.0 F (8.9 C)
Relative Humidity: 31%
Pressure (altimeter): 29.91 in. Hg (1012 hPa)
ob: KCRW 171654Z 23013G23KT 10SM SCT070 SCT120 BKN200 27/09 A2991 RMK AO2 PK WND 19033/1612 SLP120 T02720089
cycle: 17

Station Type Date Time Source
KCRW TAF 2024/04/17 18:42 UTC NOAA